createdAt,value
2023-02-17T00:00:58.179Z,15.77
2023-02-17T00:03:25.584Z,16.70
2023-02-17T00:05:53.150Z,16.53
2023-02-17T00:08:20.112Z,17.67
2023-02-17T00:10:58.557Z,17.20
2023-02-17T00:13:25.922Z,15.07
2023-02-17T00:15:53.502Z,14.37
2023-02-17T00:18:20.702Z,16.63
2023-02-17T00:20:47.603Z,15.37
2023-02-17T00:23:14.518Z,16.20
2023-02-17T00:25:41.839Z,17.17
2023-02-17T00:28:08.895Z,16.10
2023-02-17T00:30:38.281Z,16.33
2023-02-17T00:33:05.525Z,15.93
2023-02-17T00:35:32.489Z,15.37
2023-02-17T00:37:59.469Z,14.83
2023-02-17T00:40:26.415Z,16.03
2023-02-17T00:42:54.972Z,17.40
2023-02-17T00:45:22.970Z,18.53
2023-02-17T00:47:49.929Z,17.97
2023-02-17T00:50:17.280Z,17.10
2023-02-17T00:52:44.232Z,15.20
2023-02-17T00:55:11.177Z,14.17
2023-02-17T00:57:38.109Z,13.93
2023-02-17T01:00:05.744Z,13.03
2023-02-17T01:02:33.193Z,14.17
2023-02-17T01:05:00.156Z,13.90
2023-02-17T01:07:27.117Z,13.50
2023-02-17T01:09:54.032Z,12.87
2023-02-17T01:12:22.126Z,13.53
2023-02-17T01:14:49.785Z,12.87
2023-02-17T01:17:16.693Z,13.80
2023-02-17T01:19:43.603Z,13.73
2023-02-17T01:22:10.819Z,13.27
2023-02-17T01:24:39.151Z,13.80
2023-02-17T01:27:06.154Z,14.00
2023-02-17T01:29:33.084Z,14.40
2023-02-17T01:32:00.235Z,13.33
2023-02-17T01:34:27.358Z,12.37
2023-02-17T01:36:54.388Z,14.67
2023-02-17T01:39:21.348Z,12.40
2023-02-17T01:41:48.612Z,12.60
2023-02-17T01:44:24.768Z,12.33
2023-02-17T01:46:56.767Z,12.10
2023-02-17T01:49:35.691Z,12.00
2023-02-17T01:52:05.750Z,10.17
2023-02-17T01:54:43.618Z,10.63
2023-02-17T01:57:12.926Z,10.47
2023-02-17T01:59:41.072Z,9.57
2023-02-17T02:02:08.977Z,9.70
2023-02-17T02:04:39.730Z,10.00
2023-02-17T02:07:14.268Z,9.50
2023-02-17T02:09:47.643Z,9.83
2023-02-17T02:12:26.829Z,10.37
2023-02-17T02:14:58.665Z,10.77
2023-02-17T02:17:43.714Z,10.57
2023-02-17T02:20:47.834Z,10.30
2023-02-17T02:23:26.844Z,10.43
2023-02-17T02:26:05.177Z,10.70
2023-02-17T02:28:59.629Z,10.93
2023-02-17T02:31:41.474Z,10.97
2023-02-17T02:34:23.922Z,9.90
2023-02-17T02:37:18.107Z,11.73
2023-02-17T02:39:49.042Z,11.83
2023-02-17T02:42:20.267Z,12.17
2023-02-17T02:44:47.559Z,11.83
2023-02-17T02:47:55.914Z,12.63
2023-02-17T02:50:47.304Z,12.00
2023-02-17T02:53:20.330Z,11.97
2023-02-17T02:55:54.049Z,10.43
2023-02-17T02:58:51.723Z,11.13
2023-02-17T03:01:27.953Z,10.20
2023-02-17T03:04:15.012Z,9.73
2023-02-17T03:07:06.573Z,10.30
2023-02-17T03:09:34.024Z,9.00
2023-02-17T03:12:00.950Z,9.00
2023-02-17T03:14:28.712Z,9.33
2023-02-17T03:16:56.506Z,8.40
2023-02-17T03:19:25.313Z,7.53
2023-02-17T03:22:02.087Z,8.20
2023-02-17T03:24:28.975Z,8.13
2023-02-17T03:26:55.783Z,7.80
2023-02-17T03:29:22.742Z,7.97
2023-02-17T03:31:49.739Z,7.67
2023-02-17T03:34:16.874Z,7.53
2023-02-17T03:36:43.837Z,7.63
2023-02-17T03:39:10.760Z,6.97
2023-02-17T03:41:37.719Z,6.63
2023-02-17T03:44:04.779Z,6.37
2023-02-17T03:46:31.677Z,6.83
2023-02-17T03:48:58.571Z,5.83
2023-02-17T03:51:26.075Z,6.67
2023-02-17T03:53:53.546Z,7.07
2023-02-17T03:56:20.442Z,7.07
2023-02-17T03:58:47.389Z,5.90
2023-02-17T04:01:15.024Z,7.17
2023-02-17T04:03:42.417Z,6.53
2023-02-17T04:06:10.571Z,7.17
2023-02-17T04:08:38.686Z,6.73
2023-02-17T04:11:07.048Z,7.30
2023-02-17T04:13:34.461Z,6.50
2023-02-17T04:16:01.812Z,6.73
2023-02-17T04:18:28.921Z,6.77
2023-02-17T04:20:56.093Z,6.60
2023-02-17T04:23:23.380Z,5.93
2023-02-17T04:25:50.465Z,5.77
2023-02-17T04:28:17.889Z,7.10
2023-02-17T04:30:46.445Z,5.93
2023-02-17T04:33:13.453Z,6.00
2023-02-17T04:35:40.750Z,6.10
2023-02-17T04:38:08.385Z,7.00
2023-02-17T04:40:35.306Z,6.70
2023-02-17T04:43:02.259Z,7.23
2023-02-17T04:45:29.302Z,7.43
2023-02-17T04:47:56.206Z,9.10
2023-02-17T04:50:23.381Z,10.13
2023-02-17T04:52:50.595Z,9.00
2023-02-17T04:55:17.576Z,10.17
2023-02-17T04:57:44.548Z,9.27
2023-02-17T05:00:11.902Z,8.53
2023-02-17T05:02:38.829Z,10.73
2023-02-17T05:05:05.974Z,10.97
2023-02-17T05:07:32.997Z,10.63
2023-02-17T05:09:59.917Z,9.00
2023-02-17T05:12:26.985Z,8.50
2023-02-17T05:14:53.875Z,7.93
2023-02-17T05:17:20.786Z,7.40
2023-02-17T05:19:47.682Z,9.20
2023-02-17T05:22:14.714Z,7.97
2023-02-17T05:24:41.585Z,8.03
2023-02-17T05:27:08.590Z,8.13
2023-02-17T05:29:35.565Z,9.27
2023-02-17T05:32:02.546Z,7.87
2023-02-17T05:34:30.525Z,8.30
2023-02-17T05:36:57.496Z,8.43
2023-02-17T05:39:24.537Z,8.90
2023-02-17T05:41:51.521Z,8.57
2023-02-17T05:44:18.503Z,7.57
2023-02-17T05:46:45.494Z,6.97
2023-02-17T05:49:12.469Z,6.93
2023-02-17T05:51:39.414Z,7.30
2023-02-17T05:54:06.502Z,7.13
2023-02-17T05:56:33.552Z,7.23
2023-02-17T05:59:01.124Z,6.80
2023-02-17T06:01:28.175Z,6.37
2023-02-17T06:03:55.158Z,6.80
2023-02-17T06:06:22.108Z,6.13
2023-02-17T06:08:49.047Z,6.17
2023-02-17T06:11:16.010Z,5.57
2023-02-17T06:13:42.953Z,5.87
2023-02-17T06:16:10.158Z,6.57
2023-02-17T06:18:37.595Z,7.07
2023-02-17T06:21:05.067Z,6.73
2023-02-17T06:23:32.024Z,7.27
2023-02-17T06:25:58.978Z,7.00
2023-02-17T06:28:26.058Z,6.83
2023-02-17T06:30:52.980Z,7.10
2023-02-17T06:33:19.935Z,6.33
2023-02-17T06:35:51.928Z,6.40
2023-02-17T06:38:19.622Z,6.10
2023-02-17T06:40:46.952Z,7.07
2023-02-17T06:43:14.061Z,7.40
2023-02-17T06:45:41.253Z,6.83
2023-02-17T06:48:08.469Z,6.00
2023-02-17T06:50:35.436Z,6.30
2023-02-17T06:53:02.345Z,6.03
2023-02-17T06:55:29.297Z,7.33
2023-02-17T06:57:56.170Z,6.77
2023-02-17T07:00:23.282Z,6.97
2023-02-17T07:02:50.357Z,5.97
2023-02-17T07:05:17.389Z,6.13
2023-02-17T07:07:44.337Z,5.93
2023-02-17T07:10:11.681Z,6.13
2023-02-17T07:12:38.573Z,6.50
2023-02-17T07:15:05.788Z,5.93
2023-02-17T07:17:32.700Z,6.07
2023-02-17T07:19:59.707Z,6.13
2023-02-17T07:22:26.932Z,5.80
2023-02-17T07:24:54.840Z,6.00
2023-02-17T07:27:22.682Z,6.43
2023-02-17T07:29:49.612Z,6.07
2023-02-17T07:32:16.575Z,6.00
2023-02-17T07:34:44.216Z,5.53
2023-02-17T07:37:11.463Z,5.20
2023-02-17T07:39:38.435Z,6.33
2023-02-17T07:42:06.304Z,5.40
2023-02-17T07:44:33.740Z,5.87
2023-02-17T07:47:00.691Z,5.93
2023-02-17T07:49:27.587Z,7.10
2023-02-17T07:51:54.462Z,6.13
2023-02-17T07:54:21.736Z,6.87
2023-02-17T07:56:48.732Z,5.80
2023-02-17T07:59:15.818Z,6.20
2023-02-17T08:01:42.930Z,6.87
2023-02-17T08:04:09.954Z,10.50
2023-02-17T08:06:40.165Z,11.90
2023-02-17T08:09:26.276Z,11.67
2023-02-17T08:12:11.629Z,10.97
2023-02-17T08:14:38.844Z,11.33
2023-02-17T08:17:06.754Z,10.47
2023-02-17T08:19:47.062Z,11.63
2023-02-17T08:22:18.800Z,11.33
2023-02-17T08:24:46.308Z,10.20
2023-02-17T08:27:15.476Z,11.43
2023-02-17T08:29:42.976Z,10.80
2023-02-17T08:32:09.897Z,12.13
2023-02-17T08:34:36.994Z,11.67
2023-02-17T08:37:06.314Z,12.63
2023-02-17T08:39:34.449Z,13.37
2023-02-17T08:42:01.903Z,13.20
2023-02-17T08:44:30.308Z,13.97
2023-02-17T08:46:57.384Z,13.20
2023-02-17T08:49:30.121Z,13.57
2023-02-17T08:51:58.707Z,14.43
2023-02-17T08:54:25.734Z,13.67
2023-02-17T08:56:52.643Z,12.00
2023-02-17T08:59:20.758Z,13.00
2023-02-17T09:01:47.727Z,12.03
2023-02-17T09:04:16.654Z,12.07
2023-02-17T09:06:46.936Z,11.73
2023-02-17T09:09:16.235Z,9.80
2023-02-17T09:11:43.696Z,11.43
2023-02-17T09:14:10.784Z,10.63
2023-02-17T09:16:41.495Z,11.27
2023-02-17T09:19:10.749Z,10.80
2023-02-17T09:21:40.929Z,10.13
2023-02-17T09:24:11.345Z,10.27
2023-02-17T09:26:39.336Z,9.67
2023-02-17T09:29:09.145Z,9.80
2023-02-17T09:31:36.609Z,11.23
2023-02-17T09:34:05.029Z,10.20
2023-02-17T09:36:38.101Z,10.40
2023-02-17T09:39:12.255Z,9.70
2023-02-17T09:41:48.429Z,12.53
2023-02-17T09:44:34.179Z,13.03
2023-02-17T09:47:21.972Z,13.87
2023-02-17T09:49:56.094Z,14.07
2023-02-17T09:52:37.399Z,12.77
2023-02-17T09:55:07.259Z,13.73
2023-02-17T09:57:51.191Z,13.57
2023-02-17T10:00:28.164Z,14.07
2023-02-17T10:03:18.238Z,14.57
2023-02-17T10:06:15.829Z,12.87
2023-02-17T10:09:03.421Z,13.63
2023-02-17T10:11:34.173Z,14.97
2023-02-17T10:14:10.076Z,13.97
2023-02-17T10:16:44.319Z,15.03
2023-02-17T10:19:16.497Z,14.57
2023-02-17T10:21:51.108Z,13.17
2023-02-17T10:24:18.242Z,12.23
2023-02-17T10:27:17.298Z,10.73
2023-02-17T10:29:51.304Z,9.27
2023-02-17T10:32:26.477Z,10.07
2023-02-17T10:34:58.626Z,11.73
2023-02-17T10:37:43.753Z,10.47
2023-02-17T10:40:20.936Z,10.83
2023-02-17T10:42:55.196Z,9.20
2023-02-17T10:45:36.319Z,6.83
2023-02-17T10:48:15.128Z,5.70
2023-02-17T10:50:45.883Z,4.33
2023-02-17T10:53:17.461Z,3.90
2023-02-17T10:56:02.539Z,3.73
2023-02-17T10:58:44.307Z,3.13
2023-02-17T11:01:14.441Z,3.37
2023-02-17T11:03:44.756Z,2.37
2023-02-17T11:06:23.660Z,3.30
2023-02-17T11:09:01.856Z,2.80
2023-02-17T11:11:35.345Z,2.83
2023-02-17T11:14:23.812Z,3.03
2023-02-17T11:17:25.937Z,2.80
2023-02-17T11:20:06.794Z,2.20
2023-02-17T11:22:46.579Z,2.53
2023-02-17T11:25:29.592Z,2.30
2023-02-17T11:28:03.499Z,2.80
2023-02-17T11:30:33.285Z,3.37
2023-02-17T11:33:13.465Z,2.50
2023-02-17T11:35:41.804Z,2.87
2023-02-17T11:38:20.683Z,2.30
2023-02-17T11:40:55.266Z,2.67
2023-02-17T11:43:25.566Z,2.67
2023-02-17T11:46:11.498Z,2.53
2023-02-17T11:48:57.846Z,3.40
2023-02-17T11:52:04.356Z,4.77
2023-02-17T11:54:43.287Z,5.17
2023-02-17T11:57:45.860Z,6.03
2023-02-17T12:00:41.565Z,6.30
2023-02-17T12:03:27.276Z,7.60
2023-02-17T12:05:59.244Z,6.87
2023-02-17T12:09:08.227Z,7.03
2023-02-17T12:11:46.738Z,6.70
2023-02-17T12:14:16.758Z,7.63
2023-02-17T12:17:05.432Z,6.77
2023-02-17T12:19:56.556Z,6.53
2023-02-17T12:22:45.413Z,5.43
2023-02-17T12:25:33.382Z,5.83
2023-02-17T12:28:40.589Z,6.07
2023-02-17T12:31:45.216Z,5.97
2023-02-17T12:34:34.075Z,5.20
2023-02-17T12:37:02.334Z,6.47
2023-02-17T12:39:43.269Z,5.90
2023-02-17T12:42:27.440Z,6.17
2023-02-17T12:44:59.795Z,5.47
2023-02-17T12:47:38.164Z,5.73
2023-02-17T12:50:27.324Z,5.83
2023-02-17T12:53:17.899Z,5.53
2023-02-17T12:55:55.301Z,5.40
2023-02-17T12:58:26.695Z,4.70
2023-02-17T13:01:13.750Z,5.10
2023-02-17T13:03:42.926Z,5.73
2023-02-17T13:06:30.684Z,4.90
2023-02-17T13:09:37.205Z,5.20
2023-02-17T13:12:27.500Z,4.67
2023-02-17T13:14:57.545Z,4.47
2023-02-17T13:17:51.712Z,3.87
2023-02-17T13:20:19.559Z,3.87
2023-02-17T13:22:47.828Z,3.37
2023-02-17T13:25:29.010Z,2.97
2023-02-17T13:28:16.334Z,3.00
2023-02-17T13:30:48.379Z,3.40
2023-02-17T13:33:23.326Z,2.63
2023-02-17T13:35:50.983Z,2.70
2023-02-17T13:38:29.279Z,1.90
2023-02-17T13:41:04.487Z,2.40
2023-02-17T13:43:42.297Z,2.10
2023-02-17T13:46:17.042Z,2.60
2023-02-17T13:48:43.976Z,2.50
2023-02-17T13:51:26.545Z,2.23
2023-02-17T13:53:53.594Z,2.83
2023-02-17T13:56:33.530Z,3.53
2023-02-17T13:59:10.815Z,2.70
2023-02-17T14:01:42.714Z,2.87
2023-02-17T14:04:31.699Z,2.33
2023-02-17T14:07:04.045Z,2.83
2023-02-17T14:09:35.376Z,2.20
2023-02-17T14:12:04.431Z,2.50
2023-02-17T14:14:36.868Z,2.80
2023-02-17T14:17:26.866Z,2.67
2023-02-17T14:19:57.227Z,2.37
2023-02-17T14:22:32.593Z,2.50
2023-02-17T14:25:07.382Z,2.60
2023-02-17T14:27:48.813Z,1.80
2023-02-17T14:30:39.317Z,2.87
2023-02-17T14:33:18.564Z,2.50
2023-02-17T14:36:00.163Z,2.93
2023-02-17T14:38:35.236Z,2.20
2023-02-17T14:41:07.791Z,2.80
2023-02-17T14:43:37.522Z,2.20
2023-02-17T14:46:06.066Z,2.73
2023-02-17T14:48:33.296Z,2.37
2023-02-17T14:51:01.461Z,2.37
2023-02-17T14:53:31.513Z,2.70
2023-02-17T14:56:06.694Z,2.53
2023-02-17T14:58:37.274Z,2.73
2023-02-17T15:01:05.825Z,2.50
2023-02-17T15:03:34.797Z,2.67
2023-02-17T15:06:03.788Z,2.40
2023-02-17T15:08:35.793Z,2.87
2023-02-17T15:11:06.179Z,3.30
2023-02-17T15:13:36.195Z,2.47
2023-02-17T15:16:03.266Z,2.50
2023-02-17T15:18:30.324Z,2.30
2023-02-17T15:20:59.385Z,2.53
2023-02-17T15:23:30.844Z,2.73
2023-02-17T15:25:57.970Z,2.57
2023-02-17T15:28:27.982Z,4.37
2023-02-17T15:30:58.165Z,2.27
2023-02-17T15:33:28.271Z,2.60
2023-02-17T15:36:01.634Z,2.93
2023-02-17T15:38:32.025Z,3.07
2023-02-17T15:41:11.539Z,2.70
2023-02-17T15:43:38.517Z,2.63
2023-02-17T15:46:20.757Z,3.57
2023-02-17T15:48:50.857Z,2.30
2023-02-17T15:51:20.978Z,2.90
2023-02-17T15:53:48.458Z,2.87
2023-02-17T15:56:23.718Z,3.37
2023-02-17T15:58:54.555Z,2.67
2023-02-17T16:01:31.107Z,2.70
2023-02-17T16:04:01.172Z,3.23
2023-02-17T16:06:31.298Z,3.13
2023-02-17T16:09:04.890Z,2.63
2023-02-17T16:11:33.822Z,3.90
2023-02-17T16:14:03.212Z,2.77
2023-02-17T16:16:33.746Z,2.77
2023-02-17T16:19:05.183Z,3.30
2023-02-17T16:21:34.319Z,3.63
2023-02-17T16:24:01.346Z,3.33
2023-02-17T16:26:34.948Z,3.43
2023-02-17T16:29:09.559Z,3.30
2023-02-17T16:31:37.538Z,3.07
2023-02-17T16:34:07.738Z,3.47
2023-02-17T16:36:35.753Z,3.33
2023-02-17T16:39:12.811Z,3.40
2023-02-17T16:41:42.546Z,2.70
2023-02-17T16:44:14.915Z,2.73
2023-02-17T16:46:48.207Z,2.73
2023-02-17T16:49:33.633Z,3.47
2023-02-17T16:52:02.690Z,3.70
2023-02-17T16:54:31.006Z,3.63
2023-02-17T16:56:59.739Z,3.30
2023-02-17T16:59:27.154Z,3.50
2023-02-17T17:01:54.142Z,4.53
2023-02-17T17:04:21.883Z,3.80
2023-02-17T17:06:51.618Z,4.33
2023-02-17T17:09:23.554Z,4.10
2023-02-17T17:11:50.924Z,5.07
2023-02-17T17:14:21.868Z,3.63
2023-02-17T17:16:57.511Z,4.17
2023-02-17T17:19:25.380Z,3.93
2023-02-17T17:21:53.334Z,4.30
2023-02-17T17:24:21.978Z,4.23
2023-02-17T17:26:51.653Z,4.20
2023-02-17T17:29:21.717Z,3.90
2023-02-17T17:31:51.808Z,4.30
2023-02-17T17:34:20.866Z,4.63
2023-02-17T17:36:50.859Z,5.47
2023-02-17T17:39:23.730Z,5.63
2023-02-17T17:41:53.819Z,5.03
2023-02-17T17:44:20.954Z,5.73
2023-02-17T17:46:48.069Z,6.90
2023-02-17T17:49:18.494Z,7.63
2023-02-17T17:51:48.597Z,8.50
2023-02-17T17:54:17.638Z,8.50
2023-02-17T17:56:47.778Z,10.27
2023-02-17T17:59:15.807Z,9.90
2023-02-17T18:01:45.627Z,10.80
2023-02-17T18:04:15.999Z,12.47
2023-02-17T18:06:51.817Z,11.77
2023-02-17T18:09:31.813Z,12.43
2023-02-17T18:12:20.858Z,12.53
2023-02-17T18:14:52.363Z,13.43
2023-02-17T18:17:23.440Z,14.50
2023-02-17T18:19:55.044Z,15.20
2023-02-17T18:22:28.298Z,13.53
2023-02-17T18:24:58.199Z,13.63
2023-02-17T18:27:26.197Z,14.10
2023-02-17T18:29:59.267Z,14.47
2023-02-17T18:32:28.250Z,14.70
2023-02-17T18:34:58.452Z,13.87
2023-02-17T18:37:25.804Z,13.80
2023-02-17T18:39:52.731Z,15.13
2023-02-17T18:42:22.914Z,14.03
2023-02-17T18:44:49.947Z,14.57
2023-02-17T18:47:18.894Z,15.00
2023-02-17T18:49:48.974Z,13.70
2023-02-17T18:52:17.033Z,14.37
2023-02-17T18:54:47.102Z,13.37
2023-02-17T18:57:17.354Z,12.90
2023-02-17T18:59:46.321Z,11.93
2023-02-17T19:02:14.236Z,12.13
2023-02-17T19:04:41.187Z,12.37
2023-02-17T19:07:08.374Z,12.23
2023-02-17T19:09:44.127Z,11.20
2023-02-17T19:12:14.816Z,11.43
2023-02-17T19:14:43.663Z,10.60
2023-02-17T19:17:13.116Z,11.90
2023-02-17T19:19:41.342Z,11.57
2023-02-17T19:22:11.424Z,12.57
2023-02-17T19:24:41.442Z,12.23
2023-02-17T19:27:09.918Z,12.03
2023-02-17T19:29:38.131Z,14.43
2023-02-17T19:32:07.331Z,13.10
2023-02-17T19:34:35.549Z,12.50
2023-02-17T19:37:04.986Z,13.80
2023-02-17T19:39:34.266Z,13.07
2023-02-17T19:42:03.745Z,14.60
2023-02-17T19:44:31.996Z,13.63
2023-02-17T19:46:59.185Z,13.37
2023-02-17T19:49:26.316Z,13.33
2023-02-17T19:51:55.934Z,14.13
2023-02-17T19:54:24.508Z,13.80
2023-02-17T19:56:52.074Z,13.73
2023-02-17T19:59:19.467Z,13.23
2023-02-17T20:01:46.924Z,14.13
2023-02-17T20:04:14.399Z,14.77
2023-02-17T20:06:45.890Z,15.43
2023-02-17T20:09:17.838Z,15.07
2023-02-17T20:11:47.774Z,14.17
2023-02-17T20:14:14.697Z,14.50
2023-02-17T20:16:42.058Z,15.93
2023-02-17T20:19:09.310Z,16.00
2023-02-17T20:21:38.687Z,15.07
2023-02-17T20:24:07.000Z,14.23
2023-02-17T20:26:40.961Z,15.70
2023-02-17T20:29:09.908Z,14.30
2023-02-17T20:31:38.902Z,13.30
2023-02-17T20:34:17.969Z,13.50
2023-02-17T20:36:44.946Z,14.40
2023-02-17T20:39:12.200Z,15.37
2023-02-17T20:41:39.106Z,13.73
2023-02-17T20:44:07.124Z,14.83
2023-02-17T20:46:35.101Z,14.73
2023-02-17T20:49:02.103Z,14.63
2023-02-17T20:51:28.982Z,16.27
2023-02-17T20:53:55.898Z,14.60
2023-02-17T20:56:24.681Z,15.60
2023-02-17T20:58:54.052Z,15.47
2023-02-17T21:01:20.969Z,15.40
2023-02-17T21:03:48.282Z,13.77
2023-02-17T21:06:24.497Z,14.83
2023-02-17T21:08:56.504Z,13.30
2023-02-17T21:11:24.664Z,13.97
2023-02-17T21:13:52.063Z,14.60
2023-02-17T21:16:22.315Z,14.80
2023-02-17T21:18:50.623Z,15.20
2023-02-17T21:21:18.553Z,15.57
2023-02-17T21:23:48.031Z,15.87
2023-02-17T21:26:16.739Z,16.03
2023-02-17T21:28:44.513Z,16.33
2023-02-17T21:31:12.881Z,17.37
2023-02-17T21:33:42.232Z,16.23
2023-02-17T21:36:15.316Z,17.93
2023-02-17T21:38:44.536Z,19.83
2023-02-17T21:41:15.556Z,18.37
2023-02-17T21:44:02.059Z,17.57
2023-02-17T21:46:30.405Z,18.73
2023-02-17T21:48:58.545Z,18.60
2023-02-17T21:51:26.405Z,17.97
2023-02-17T21:53:53.807Z,19.77
2023-02-17T21:56:22.473Z,19.50
2023-02-17T21:58:52.761Z,18.90
2023-02-17T22:01:20.514Z,18.90
2023-02-17T22:03:47.515Z,18.77
2023-02-17T22:06:21.099Z,19.43
2023-02-17T22:08:48.046Z,20.00
2023-02-17T22:11:17.090Z,18.67
2023-02-17T22:13:45.137Z,18.57
2023-02-17T22:16:12.760Z,19.83
2023-02-17T22:18:39.907Z,18.30
2023-02-17T22:21:11.518Z,19.50
2023-02-17T22:23:39.422Z,18.80
2023-02-17T22:26:11.083Z,18.43
2023-02-17T22:28:38.326Z,19.57
2023-02-17T22:31:05.994Z,18.67
2023-02-17T22:33:33.621Z,19.17
2023-02-17T22:36:03.441Z,20.40
2023-02-17T22:38:30.375Z,18.77
2023-02-17T22:40:57.365Z,19.23
2023-02-17T22:43:24.324Z,19.33
2023-02-17T22:46:01.432Z,21.17
2023-02-17T22:48:29.830Z,20.30
2023-02-17T22:50:57.051Z,19.83
2023-02-17T22:53:24.614Z,19.33
2023-02-17T22:55:56.183Z,19.40
2023-02-17T22:58:24.592Z,18.97
2023-02-17T23:00:51.739Z,21.57
2023-02-17T23:03:19.070Z,19.27
2023-02-17T23:05:46.975Z,19.10
2023-02-17T23:08:14.092Z,19.13
2023-02-17T23:10:43.004Z,21.33
2023-02-17T23:13:10.735Z,20.50
2023-02-17T23:15:41.542Z,21.77
2023-02-17T23:18:15.403Z,20.13
2023-02-17T23:20:44.736Z,18.67
2023-02-17T23:23:12.032Z,19.10
2023-02-17T23:25:41.236Z,18.10
2023-02-17T23:28:08.107Z,17.87
2023-02-17T23:30:35.129Z,18.10
2023-02-17T23:33:02.102Z,16.97
2023-02-17T23:35:29.156Z,18.27
2023-02-17T23:37:57.070Z,18.83
2023-02-17T23:40:24.346Z,20.13
2023-02-17T23:42:51.219Z,19.73
2023-02-17T23:45:18.222Z,21.23
2023-02-17T23:47:45.226Z,20.63
2023-02-17T23:50:12.251Z,19.73
2023-02-17T23:52:39.312Z,21.73
2023-02-17T23:55:06.577Z,22.83
2023-02-17T23:57:39.354Z,20.40
